Flight Track Log - Related Links

Times and Time Zones

All times are in EDT time to prevent confusion due to time zone crossing. See the SWA565 flight status page for this flight to view local times or setup timezone preferences in your user account.

Time Position Orientation Groundspeed Altitude Reporting Facility
EDT Latitude Longitude Course Direction KTS MPH feet Rate Location/Type
Sat 01:37:51 AM 36.0758 -115.1764 271° West 176 203 3,600  Level Los Angeles Center
Sat 01:38:15 AM 36.0761 -115.2081 271° West 191 220 4,200 2,047 Climbing Los Angeles Center
Sat 01:39:16 AM 36.0419 -115.2697 236° Southwest 263 303 6,500 1,377 Climbing Los Angeles Center
Sat 01:40:17 AM 35.9681 -115.3072 202° Southwest 283 326 7,000 1,210 Climbing Los Angeles Center
Sat 01:41:20 AM 35.9181 -115.3639 223° Southwest 281 323 9,000 1,306 Climbing Los Angeles Center
Sat 01:42:21 AM 35.8867 -115.4492 246° West 285 328 9,700 1,033 Climbing Los Angeles Center
Sat 01:43:22 AM 35.8894 -115.5683 272° West 299 344 11,100 934 Climbing Los Angeles Center
Sat 01:44:23 AM 35.8906 -115.6897 271° West 352 405 11,600 1,574 Climbing Los Angeles Center
Sat 01:45:24 AM 35.8936 -115.8192 272° West 349 402 14,300 2,311 Climbing Los Angeles Center
Sat 01:46:25 AM 35.8956 -115.9447 271° West 367 422 16,300 1,967 Climbing Los Angeles Center
Sat 01:47:26 AM 35.9525 -116.0347 308° West 341 392 18,300 1,636 Climbing Los Angeles Center
Sat 01:48:26 AM 36.0244 -116.1167 317° Northwest 353 406 19,600 1,488 Climbing Los Angeles Center
Sat 01:49:27 AM 36.0961 -116.2014 316° Northwest 356 410 21,300 1,426 Climbing Los Angeles Center
Sat 01:50:28 AM 36.1642 -116.2794 317° Northwest 358 412 22,500 1,131 Climbing Los Angeles Center
Sat 01:51:29 AM 36.2392 -116.3642 318° Northwest 363 418 23,600 1,131 Climbing Los Angeles Center
Sat 01:52:30 AM 36.3128 -116.4517 316° Northwest 365 420 24,800 1,033 Climbing Los Angeles Center
Sat 01:53:31 AM 36.3889 -116.5400 317° Northwest 371 427 25,700 934 Climbing Los Angeles Center
Sat 01:54:32 AM 36.4664 -116.6292 317° Northwest 377 434 26,700 1,721 Climbing Los Angeles Center
Sat 01:55:33 AM 36.5592 -116.7394 316° Northwest 380 437 29,200 2,231 Climbing Los Angeles Center
Sat 01:56:33 AM 36.6436 -116.8075 327° Northwest 365 420 31,200 1,587 Climbing Los Angeles Center
Sat 01:57:34 AM 36.7292 -116.8717 329° Northwest 358 412 32,400 1,230 Climbing Los Angeles Center
Sat 01:58:35 AM 36.8136 -116.9356 329° Northwest 355 409 33,700 1,073 Climbing Los Angeles Center
Sat 01:59:37 AM 36.8972 -116.9997 328° Northwest 352 405 34,600 951 Climbing Los Angeles Center
Sat 01:59:57 AM 36.9286 -117.0264 326° Northwest 351 404 35,000 1,125 Climbing Oakland Center
Sat 02:00:57 AM 36.9822 -117.1264 304° West 347 399 36,100 545 Climbing Oakland Center
Sat 02:01:58 AM 37.0364 -117.2192 306° West 332 382 36,100  Level Oakland Center
Sat 02:02:58 AM 37.0908 -117.3144 306° West 333 383 36,100  Level Oakland Center
Sat 02:03:59 AM 37.1444 -117.4089 305° West 333 383 36,100  Level Oakland Center
Sat 02:04:59 AM 37.1975 -117.5019 306° West 328 377 36,100  Level Oakland Center
Sat 02:06:00 AM 37.2425 -117.6017 300° West 329 379 36,100  Level Oakland Center
Sat 02:07:00 AM 37.2575 -117.7175 279° West 337 388 36,100  Level Oakland Center
Sat 02:08:01 AM 37.2722 -117.8336 279° West 336 387 36,100  Level Oakland Center
Sat 02:09:01 AM 37.2878 -117.9481 280° West 333 383 36,100  Level Oakland Center
Sat 02:10:02 AM 37.3022 -118.0644 279° West 335 386 36,100  Level Oakland Center
Sat 02:11:03 AM 37.3153 -118.1789 278° West 332 382 36,100  Level Oakland Center
Sat 02:12:03 AM 37.3314 -118.2967 280° West 338 389 36,100  Level Oakland Center
Sat 02:13:04 AM 37.3453 -118.4133 279° West 338 389 36,100  Level Oakland Center
Sat 02:14:04 AM 37.3589 -118.5317 278° West 340 391 36,100  Level Oakland Center
Sat 02:15:05 AM 37.3731 -118.6511 279° West 343 395 36,100  Level Oakland Center
Sat 02:16:05 AM 37.3875 -118.7708 279° West 344 396 36,100  Level Oakland Center
Sat 02:17:06 AM 37.3983 -118.8761 277° West 341 392 36,100 -50 Level Oakland Center
Sat 02:18:06 AM 37.4136 -118.9972 279° West 346 398 36,000  Descending Oakland Center
Sat 02:19:07 AM 37.4278 -119.1167 279° West 348 400 36,100  Climbing Oakland Center
Sat 02:20:07 AM 37.4453 -119.2492 279° West 374 430 36,000  Descending Oakland Center
Sat 02:21:08 AM 37.4608 -119.3936 278° West 351 404 36,100 50 Climbing Oakland Center
Sat 02:22:08 AM 37.4733 -119.5164 277° West 356 410 36,100  Level Oakland Center
Sat 02:23:09 AM 37.4872 -119.6372 278° West 352 405 36,100  Level Oakland Center
Sat 02:24:09 AM 37.5008 -119.7617 278° West 357 411 36,100  Level Oakland Center
Sat 02:25:10 AM 37.5133 -119.8844 277° West 353 406 36,100  Level Oakland Center
Sat 02:26:10 AM 37.5264 -120.0097 278° West 361 415 36,100  Level Oakland Center
Sat 02:27:11 AM 37.5397 -120.1358 278° West 395 455 36,100  Level Oakland Center
Sat 02:28:11 AM 37.5558 -120.2539 280° West 354 407 36,100  Level Oakland Center
Sat 02:29:12 AM 37.5683 -120.3806 277° West 361 415 36,100 -1,289 Level Oakland Center
Sat 02:30:12 AM 37.5817 -120.5072 278° West 364 419 33,500 -2,926 Descending Oakland Center
Sat 02:31:13 AM 37.5953 -120.6372 278° West 370 426 30,200 -2,876 Descending Oakland Center
Sat 02:32:13 AM 37.6083 -120.7675 277° West 374 430 27,700 -2,500 Descending Oakland Center
Sat 02:33:13 AM 37.6208 -120.8914 277° West 364 419 25,200 -2,380 Descending Oakland Center
Sat 02:34:14 AM 37.6214 -121.0092 270° West 344 396 22,900 -2,281 Descending Oakland Center
Sat 02:35:14 AM 37.6081 -121.1272 262° West 341 392 20,600 -2,231 Descending Oakland Center
Sat 02:36:15 AM 37.5944 -121.2406 261° West 334 384 18,400 -2,182 Descending Oakland Center
Sat 02:37:15 AM 37.5831 -121.3522 263° West 324 373 16,200 -2,231 Descending Oakland Center
Sat 02:38:16 AM 37.5692 -121.4631 261° West 322 371 13,900 -2,281 Descending Oakland Center
Sat 02:39:16 AM 37.5475 -121.5739 256° West 325 374 11,600 -1,500 Descending Oakland Center
Sat 02:40:16 AM 37.5258 -121.6847 256° West 326 375 10,900 -829 Descending Oakland Center
Sat 02:41:19 AM 37.5000 -121.8000 254° West 287 330 9,900 -927 Descending Northern Cal TRACON
Sat 02:42:19 AM 37.4833 -121.8833 256° West 257 296 9,000 -1,050 Descending Northern Cal TRACON
Sat 02:43:19 AM 37.4667 -121.9667 256° West 213 245 7,800 -1,600 Descending Northern Cal TRACON
Sat 02:44:19 AM 37.4833 -122.0167 293° West 168 193 5,800 -1,800 Descending Northern Cal TRACON
Sat 02:45:19 AM 37.5167 -122.0667 310° West 150 173 4,200 -850 Descending Northern Cal TRACON
Sat 02:46:19 AM 37.5333 -122.1167 293° West 142 163 4,100 -350 Descending Northern Cal TRACON
Sat 02:47:19 AM 37.5414 -122.1492 287° West 143 165 3,500 -750 Descending Oakland Center
Sat 02:48:19 AM 37.5594 -122.1933 297° West 143 165 2,600 -744 Descending Oakland Center
Sat 02:49:20 AM 37.5733 -122.2328 294° West 135 155 2,000 -545 Descending Oakland Center
Sat 02:50:20 AM 37.5797 -122.2786 280° West 130 150 1,500 -700 Descending Oakland Center
Sat 02:51:20 AM 37.5953 -122.3269 292° West 139 160 600 -645 Descending Oakland Center
Sat 02:52:21 AM 37.6158 -122.3736 299° West 140 161 200 -393 Descending Oakland Center
Sat 02:54:00 AM 37.6167 -122.3667 322° Northwest  Level FlightAware Approximate

Login

Don't have an account? Register now (free) for customized features, flight alerts, and more!